sensor_id;sensor_type;location;lat;lon;timestamp;pressure;altitude;pressure_sealevel;temperature;humidity
47366;BME280;33105;47.964;7.982;2023-12-22T00:01:19;95846.25;;;6.56;100.00
47366;BME280;33105;47.964;7.982;2023-12-22T00:04:20;95854.47;;;6.66;100.00
47366;BME280;33105;47.964;7.982;2023-12-22T00:07:22;95861.50;;;6.62;100.00
47366;BME280;33105;47.964;7.982;2023-12-22T00:10:23;95871.03;;;6.64;100.00
47366;BME280;33105;47.964;7.982;2023-12-22T00:13:25;95885.66;;;6.63;100.00
47366;BME280;33105;47.964;7.982;2023-12-22T00:16:26;95893.56;;;6.65;100.00
47366;BME280;33105;47.964;7.982;2023-12-22T00:19:27;95881.63;;;6.71;100.00
47366;BME280;33105;47.964;7.982;2023-12-22T00:22:29;95858.00;;;6.66;100.00
47366;BME280;33105;47.964;7.982;2023-12-22T00:25:31;95864.53;;;6.70;100.00
47366;BME280;33105;47.964;7.982;2023-12-22T00:28:32;95876.97;;;6.61;100.00
47366;BME280;33105;47.964;7.982;2023-12-22T00:31:33;95874.81;;;6.63;100.00
47366;BME280;33105;47.964;7.982;2023-12-22T00:34:36;95887.50;;;6.58;100.00
47366;BME280;33105;47.964;7.982;2023-12-22T00:37:40;95897.53;;;6.57;100.00
47366;BME280;33105;47.964;7.982;2023-12-22T00:40:41;95887.81;;;6.61;100.00
47366;BME280;33105;47.964;7.982;2023-12-22T00:43:42;95891.16;;;6.73;100.00
47366;BME280;33105;47.964;7.982;2023-12-22T00:46:44;95890.84;;;6.65;100.00
47366;BME280;33105;47.964;7.982;2023-12-22T00:49:46;95914.44;;;6.64;100.00
47366;BME280;33105;47.964;7.982;2023-12-22T00:52:48;95924.16;;;6.60;100.00
47366;BME280;33105;47.964;7.982;2023-12-22T00:55:49;95919.13;;;6.42;100.00
47366;BME280;33105;47.964;7.982;2023-12-22T00:58:50;95911.53;;;6.17;100.00
47366;BME280;33105;47.964;7.982;2023-12-22T01:01:52;95910.56;;;6.28;100.00
47366;BME280;33105;47.964;7.982;2023-12-22T01:09:51;95919.72;;;6.00;100.00
47366;BME280;33105;47.964;7.982;2023-12-22T01:12:53;95933.34;;;6.05;100.00
47366;BME280;33105;47.964;7.982;2023-12-22T01:15:55;95928.81;;;6.11;100.00
47366;BME280;33105;47.964;7.982;2023-12-22T01:18:56;95920.19;;;6.14;100.00
47366;BME280;33105;47.964;7.982;2023-12-22T01:21:57;95915.34;;;6.21;100.00
47366;BME280;33105;47.964;7.982;2023-12-22T01:24:58;95938.47;;;6.02;100.00
47366;BME280;33105;47.964;7.982;2023-12-22T01:28:00;95927.03;;;5.78;100.00
47366;BME280;33105;47.964;7.982;2023-12-22T01:31:02;95929.44;;;5.96;100.00
47366;BME280;33105;47.964;7.982;2023-12-22T01:34:04;95911.16;;;6.08;100.00
47366;BME280;33105;47.964;7.982;2023-12-22T01:37:05;95925.25;;;6.32;100.00
47366;BME280;33105;47.964;7.982;2023-12-22T01:40:07;95932.31;;;6.33;100.00
47366;BME280;33105;47.964;7.982;2023-12-22T01:43:09;95956.50;;;6.13;100.00
47366;BME280;33105;47.964;7.982;2023-12-22T01:46:11;95971.16;;;5.95;100.00
47366;BME280;33105;47.964;7.982;2023-12-22T01:49:14;95985.31;;;5.97;100.00
47366;BME280;33105;47.964;7.982;2023-12-22T01:52:16;95975.25;;;6.20;100.00
47366;BME280;33105;47.964;7.982;2023-12-22T01:55:18;95965.53;;;6.19;100.00
47366;BME280;33105;47.964;7.982;2023-12-22T01:58:22;95973.84;;;6.12;100.00
47366;BME280;33105;47.964;7.982;2023-12-22T02:01:25;95969.31;;;6.18;100.00
47366;BME280;33105;47.964;7.982;2023-12-22T02:04:27;95969.41;;;6.06;100.00
47366;BME280;33105;47.964;7.982;2023-12-22T02:07:30;95982.34;;;5.99;100.00
47366;BME280;33105;47.964;7.982;2023-12-22T02:10:32;95973.53;;;6.08;100.00
47366;BME280;33105;47.964;7.982;2023-12-22T02:13:33;95965.81;;;6.00;100.00
47366;BME280;33105;47.964;7.982;2023-12-22T02:16:45;95954.16;;;6.00;100.00
47366;BME280;33105;47.964;7.982;2023-12-22T02:19:47;95950.50;;;6.11;100.00
47366;BME280;33105;47.964;7.982;2023-12-22T02:22:52;95946.53;;;5.97;100.00
47366;BME280;33105;47.964;7.982;2023-12-22T02:26:32;95968.53;;;6.00;100.00
47366;BME280;33105;47.964;7.982;2023-12-22T02:34:43;95988.84;;;5.98;100.00
47366;BME280;33105;47.964;7.982;2023-12-22T02:43:55;96007.75;;;5.76;100.00
47366;BME280;33105;47.964;7.982;2023-12-22T02:47:26;96035.47;;;5.44;100.00
47366;BME280;33105;47.964;7.982;2023-12-22T02:52:03;96034.16;;;5.30;100.00
47366;BME280;33105;47.964;7.982;2023-12-22T02:55:26;96025.13;;;5.25;100.00
47366;BME280;33105;47.964;7.982;2023-12-22T02:58:27;96030.88;;;5.28;100.00
47366;BME280;33105;47.964;7.982;2023-12-22T03:01:28;96032.03;;;5.32;100.00
47366;BME280;33105;47.964;7.982;2023-12-22T03:04:29;96022.28;;;5.31;100.00
47366;BME280;33105;47.964;7.982;2023-12-22T03:07:31;96018.66;;;5.42;100.00
47366;BME280;33105;47.964;7.982;2023-12-22T03:10:32;96020.31;;;5.43;100.00
47366;BME280;33105;47.964;7.982;2023-12-22T03:13:33;96037.63;;;5.42;100.00
47366;BME280;33105;47.964;7.982;2023-12-22T03:16:34;96034.41;;;5.29;100.00
47366;BME280;33105;47.964;7.982;2023-12-22T03:19:35;96028.50;;;5.32;100.00
47366;BME280;33105;47.964;7.982;2023-12-22T03:22:37;96027.50;;;4.88;100.00
47366;BME280;33105;47.964;7.982;2023-12-22T03:25:38;96033.50;;;4.90;100.00
47366;BME280;33105;47.964;7.982;2023-12-22T03:28:40;96038.59;;;5.03;100.00
47366;BME280;33105;47.964;7.982;2023-12-22T03:31:41;96039.94;;;5.17;100.00
47366;BME280;33105;47.964;7.982;2023-12-22T03:34:42;96034.31;;;5.24;100.00
47366;BME280;33105;47.964;7.982;2023-12-22T03:37:43;96029.31;;;5.32;100.00
47366;BME280;33105;47.964;7.982;2023-12-22T03:40:44;96027.09;;;5.29;100.00
47366;BME280;33105;47.964;7.982;2023-12-22T03:43:45;96044.34;;;5.23;100.00
47366;BME280;33105;47.964;7.982;2023-12-22T03:46:46;96048.03;;;5.34;100.00
47366;BME280;33105;47.964;7.982;2023-12-22T03:49:48;96050.25;;;5.37;100.00
47366;BME280;33105;47.964;7.982;2023-12-22T03:52:49;96044.94;;;5.42;100.00
47366;BME280;33105;47.964;7.982;2023-12-22T03:55:50;96023.00;;;5.43;100.00
47366;BME280;33105;47.964;7.982;2023-12-22T03:58:51;96026.09;;;5.52;100.00
47366;BME280;33105;47.964;7.982;2023-12-22T04:01:55;96030.78;;;5.57;100.00
47366;BME280;33105;47.964;7.982;2023-12-22T04:04:58;96014.44;;;5.52;100.00
47366;BME280;33105;47.964;7.982;2023-12-22T04:07:59;96029.22;;;5.61;100.00
47366;BME280;33105;47.964;7.982;2023-12-22T04:15:53;96050.41;;;5.30;100.00
47366;BME280;33105;47.964;7.982;2023-12-22T04:24:45;96076.03;;;5.39;100.00
47366;BME280;33105;47.964;7.982;2023-12-22T04:51:24;96051.06;;;5.21;100.00
47366;BME280;33105;47.964;7.982;2023-12-22T04:54:29;96035.97;;;5.25;100.00
47366;BME280;33105;47.964;7.982;2023-12-22T05:03:12;96038.44;;;5.26;100.00
47366;BME280;33105;47.964;7.982;2023-12-22T05:06:53;96034.91;;;5.09;100.00
47366;BME280;33105;47.964;7.982;2023-12-22T05:10:57;96065.25;;;4.94;100.00
47366;BME280;33105;47.964;7.982;2023-12-22T05:14:47;96067.88;;;5.06;100.00
47366;BME280;33105;47.964;7.982;2023-12-22T05:17:58;96064.19;;;5.12;100.00
47366;BME280;33105;47.964;7.982;2023-12-22T05:21:00;96053.84;;;5.09;100.00
47366;BME280;33105;47.964;7.982;2023-12-22T05:24:02;96058.28;;;5.15;100.00
47366;BME280;33105;47.964;7.982;2023-12-22T05:35:49;96068.41;;;5.20;100.00
47366;BME280;33105;47.964;7.982;2023-12-22T05:59:56;96095.72;;;5.18;100.00
47366;BME280;33105;47.964;7.982;2023-12-22T06:07:19;96089.78;;;5.21;100.00
47366;BME280;33105;47.964;7.982;2023-12-22T06:14:30;96097.84;;;5.33;100.00
47366;BME280;33105;47.964;7.982;2023-12-22T06:22:32;96100.00;;;5.31;100.00
47366;BME280;33105;47.964;7.982;2023-12-22T06:31:28;96111.53;;;5.26;100.00
47366;BME280;33105;47.964;7.982;2023-12-22T06:35:25;96118.84;;;5.26;100.00
47366;BME280;33105;47.964;7.982;2023-12-22T06:44:23;96103.59;;;5.36;100.00
47366;BME280;33105;47.964;7.982;2023-12-22T06:56:18;96120.94;;;5.35;100.00
47366;BME280;33105;47.964;7.982;2023-12-22T07:00:28;96130.94;;;5.35;100.00
47366;BME280;33105;47.964;7.982;2023-12-22T07:08:18;96149.81;;;5.30;100.00
47366;BME280;33105;47.964;7.982;2023-12-22T07:16:35;96141.81;;;5.23;100.00
47366;BME280;33105;47.964;7.982;2023-12-22T07:20:38;96140.19;;;5.22;100.00
47366;BME280;33105;47.964;7.982;2023-12-22T07:25:02;96149.94;;;5.23;100.00
47366;BME280;33105;47.964;7.982;2023-12-22T07:28:05;96151.09;;;5.27;100.00
47366;BME280;33105;47.964;7.982;2023-12-22T07:31:19;96138.91;;;5.41;100.00
47366;BME280;33105;47.964;7.982;2023-12-22T07:34:30;96153.44;;;5.35;100.00
47366;BME280;33105;47.964;7.982;2023-12-22T07:37:32;96167.06;;;5.40;100.00
47366;BME280;33105;47.964;7.982;2023-12-22T07:46:16;96190.75;;;5.33;100.00
47366;BME280;33105;47.964;7.982;2023-12-22T07:53:42;96181.19;;;5.42;100.00
47366;BME280;33105;47.964;7.982;2023-12-22T08:06:13;96178.66;;;5.53;100.00
47366;BME280;33105;47.964;7.982;2023-12-22T08:14:17;96158.28;;;5.50;100.00
47366;BME280;33105;47.964;7.982;2023-12-22T08:17:58;96162.97;;;5.55;100.00
47366;BME280;33105;47.964;7.982;2023-12-22T08:20:59;96170.94;;;5.61;100.00
47366;BME280;33105;47.964;7.982;2023-12-22T08:27:39;96169.31;;;5.77;100.00
47366;BME280;33105;47.964;7.982;2023-12-22T08:31:56;96173.41;;;5.79;100.00
47366;BME280;33105;47.964;7.982;2023-12-22T08:34:58;96174.91;;;5.87;100.00
47366;BME280;33105;47.964;7.982;2023-12-22T08:38:19;96184.09;;;5.86;100.00
47366;BME280;33105;47.964;7.982;2023-12-22T08:51:13;96203.78;;;5.93;100.00
47366;BME280;33105;47.964;7.982;2023-12-22T08:54:54;96203.44;;;5.90;100.00
47366;BME280;33105;47.964;7.982;2023-12-22T08:57:59;96206.03;;;5.85;100.00
47366;BME280;33105;47.964;7.982;2023-12-22T09:01:21;96206.75;;;5.80;100.00
47366;BME280;33105;47.964;7.982;2023-12-22T09:05:21;96229.50;;;5.91;100.00
47366;BME280;33105;47.964;7.982;2023-12-22T09:08:23;96227.38;;;5.81;100.00
47366;BME280;33105;47.964;7.982;2023-12-22T09:11:51;96244.63;;;5.75;100.00
47366;BME280;33105;47.964;7.982;2023-12-22T09:15:06;96227.72;;;5.85;100.00
47366;BME280;33105;47.964;7.982;2023-12-22T09:33:25;96183.72;;;6.11;100.00
47366;BME280;33105;47.964;7.982;2023-12-22T09:42:19;96191.81;;;6.28;100.00
47366;BME280;33105;47.964;7.982;2023-12-22T09:45:22;96198.06;;;6.28;100.00
47366;BME280;33105;47.964;7.982;2023-12-22T09:48:23;96186.47;;;6.33;100.00
47366;BME280;33105;47.964;7.982;2023-12-22T09:51:28;96184.75;;;6.27;100.00
47366;BME280;33105;47.964;7.982;2023-12-22T09:54:31;96178.31;;;6.49;100.00
47366;BME280;33105;47.964;7.982;2023-12-22T09:57:33;96174.19;;;6.47;100.00
47366;BME280;33105;47.964;7.982;2023-12-22T10:00:37;96179.88;;;6.45;100.00
47366;BME280;33105;47.964;7.982;2023-12-22T10:03:41;96182.81;;;6.61;100.00
47366;BME280;33105;47.964;7.982;2023-12-22T10:20:28;96188.59;;;6.47;100.00
47366;BME280;33105;47.964;7.982;2023-12-22T10:24:05;96178.50;;;6.43;100.00
47366;BME280;33105;47.964;7.982;2023-12-22T10:28:20;96175.25;;;6.46;100.00
47366;BME280;33105;47.964;7.982;2023-12-22T10:31:52;96174.53;;;6.51;100.00
47366;BME280;33105;47.964;7.982;2023-12-22T10:34:53;96158.22;;;6.67;100.00
47366;BME280;33105;47.964;7.982;2023-12-22T10:37:55;96147.97;;;6.74;100.00
47366;BME280;33105;47.964;7.982;2023-12-22T10:40:57;96137.59;;;6.71;100.00
47366;BME280;33105;47.964;7.982;2023-12-22T10:44:27;96130.72;;;6.86;100.00
47366;BME280;33105;47.964;7.982;2023-12-22T10:57:24;96114.13;;;6.60;100.00
47366;BME280;33105;47.964;7.982;2023-12-22T11:09:40;96091.47;;;6.49;100.00
47366;BME280;33105;47.964;7.982;2023-12-22T11:13:16;96102.00;;;6.46;100.00
47366;BME280;33105;47.964;7.982;2023-12-22T11:17:30;96102.81;;;6.46;100.00
47366;BME280;33105;47.964;7.982;2023-12-22T11:20:32;96082.41;;;6.61;100.00
47366;BME280;33105;47.964;7.982;2023-12-22T11:23:35;96064.97;;;6.57;100.00
47366;BME280;33105;47.964;7.982;2023-12-22T11:26:38;96081.75;;;6.54;100.00
47366;BME280;33105;47.964;7.982;2023-12-22T11:29:40;96063.84;;;6.53;100.00
47366;BME280;33105;47.964;7.982;2023-12-22T11:32:45;96067.50;;;6.63;100.00
47366;BME280;33105;47.964;7.982;2023-12-22T11:35:49;96075.38;;;6.65;100.00
47366;BME280;33105;47.964;7.982;2023-12-22T11:38:51;96058.84;;;6.66;100.00
47366;BME280;33105;47.964;7.982;2023-12-22T11:41:55;96057.72;;;6.62;100.00
47366;BME280;33105;47.964;7.982;2023-12-22T11:44:59;96044.72;;;6.64;100.00
47366;BME280;33105;47.964;7.982;2023-12-22T11:48:08;96037.13;;;6.66;100.00
47366;BME280;33105;47.964;7.982;2023-12-22T11:51:13;96025.25;;;6.72;100.00
47366;BME280;33105;47.964;7.982;2023-12-22T11:56:47;96042.72;;;6.81;100.00
47366;BME280;33105;47.964;7.982;2023-12-22T11:59:44;96034.56;;;6.81;100.00
47366;BME280;33105;47.964;7.982;2023-12-22T12:08:29;96023.22;;;6.85;100.00
47366;BME280;33105;47.964;7.982;2023-12-22T12:17:09;96005.91;;;6.96;100.00
47366;BME280;33105;47.964;7.982;2023-12-22T12:23:28;96003.19;;;6.91;100.00
47366;BME280;33105;47.964;7.982;2023-12-22T12:26:29;96000.53;;;7.01;100.00
47366;BME280;33105;47.964;7.982;2023-12-22T12:29:35;96001.38;;;7.01;100.00
47366;BME280;33105;47.964;7.982;2023-12-22T12:32:43;95989.44;;;7.02;100.00
47366;BME280;33105;47.964;7.982;2023-12-22T12:36:03;95994.41;;;7.10;100.00
47366;BME280;33105;47.964;7.982;2023-12-22T12:43:46;95979.94;;;7.05;100.00
47366;BME280;33105;47.964;7.982;2023-12-22T12:46:49;95984.34;;;7.11;100.00
47366;BME280;33105;47.964;7.982;2023-12-22T12:50:00;95979.22;;;7.14;100.00
47366;BME280;33105;47.964;7.982;2023-12-22T12:57:23;95995.13;;;7.33;100.00
47366;BME280;33105;47.964;7.982;2023-12-22T13:00:50;95969.84;;;7.32;100.00
47366;BME280;33105;47.964;7.982;2023-12-22T13:04:36;95985.88;;;7.34;100.00
47366;BME280;33105;47.964;7.982;2023-12-22T13:07:37;95988.34;;;7.35;100.00
47366;BME280;33105;47.964;7.982;2023-12-22T13:10:40;96001.94;;;7.35;100.00
47366;BME280;33105;47.964;7.982;2023-12-22T13:13:42;95978.47;;;7.24;100.00
47366;BME280;33105;47.964;7.982;2023-12-22T13:16:50;95983.91;;;7.24;100.00
47366;BME280;33105;47.964;7.982;2023-12-22T13:19:52;95988.00;;;7.27;100.00
47366;BME280;33105;47.964;7.982;2023-12-22T13:23:03;95980.66;;;7.27;100.00
47366;BME280;33105;47.964;7.982;2023-12-22T13:26:05;95983.47;;;7.37;100.00
47366;BME280;33105;47.964;7.982;2023-12-22T13:29:07;95981.84;;;7.36;100.00
47366;BME280;33105;47.964;7.982;2023-12-22T13:32:09;95990.53;;;7.38;100.00
47366;BME280;33105;47.964;7.982;2023-12-22T13:35:39;95987.00;;;7.38;100.00
47366;BME280;33105;47.964;7.982;2023-12-22T13:38:46;95990.53;;;7.38;100.00
47366;BME280;33105;47.964;7.982;2023-12-22T13:41:48;95996.81;;;7.39;100.00
47366;BME280;33105;47.964;7.982;2023-12-22T13:44:50;96003.63;;;7.46;100.00
47366;BME280;33105;47.964;7.982;2023-12-22T13:47:53;95997.63;;;7.39;100.00
47366;BME280;33105;47.964;7.982;2023-12-22T13:50:58;96015.59;;;7.45;100.00
47366;BME280;33105;47.964;7.982;2023-12-22T13:53:59;96022.25;;;7.28;100.00
47366;BME280;33105;47.964;7.982;2023-12-22T13:57:01;96015.94;;;7.22;100.00
47366;BME280;33105;47.964;7.982;2023-12-22T14:00:26;96017.31;;;7.25;100.00
47366;BME280;33105;47.964;7.982;2023-12-22T14:03:28;96003.78;;;7.30;100.00
47366;BME280;33105;47.964;7.982;2023-12-22T14:06:29;95999.63;;;7.22;100.00
47366;BME280;33105;47.964;7.982;2023-12-22T14:09:31;95982.81;;;7.25;100.00
47366;BME280;33105;47.964;7.982;2023-12-22T14:12:39;95989.34;;;7.24;100.00
47366;BME280;33105;47.964;7.982;2023-12-22T14:15:42;95988.31;;;7.30;100.00
47366;BME280;33105;47.964;7.982;2023-12-22T14:18:44;95987.69;;;7.23;100.00
47366;BME280;33105;47.964;7.982;2023-12-22T14:21:46;95988.25;;;7.25;100.00
47366;BME280;33105;47.964;7.982;2023-12-22T14:24:47;95992.91;;;7.30;100.00
47366;BME280;33105;47.964;7.982;2023-12-22T14:27:49;96002.97;;;7.29;100.00
47366;BME280;33105;47.964;7.982;2023-12-22T14:30:50;95994.25;;;7.27;100.00
47366;BME280;33105;47.964;7.982;2023-12-22T14:33:51;96001.13;;;7.35;100.00
47366;BME280;33105;47.964;7.982;2023-12-22T14:36:52;96014.09;;;7.28;100.00
47366;BME280;33105;47.964;7.982;2023-12-22T14:39:53;96020.97;;;7.35;100.00
47366;BME280;33105;47.964;7.982;2023-12-22T14:42:55;96031.78;;;7.30;100.00
47366;BME280;33105;47.964;7.982;2023-12-22T14:46:56;96033.38;;;7.26;100.00
47366;BME280;33105;47.964;7.982;2023-12-22T14:49:58;96037.72;;;7.27;100.00
47366;BME280;33105;47.964;7.982;2023-12-22T14:53:04;96038.53;;;7.28;100.00
47366;BME280;33105;47.964;7.982;2023-12-22T14:56:05;96043.66;;;7.24;100.00
47366;BME280;33105;47.964;7.982;2023-12-22T14:59:10;96047.69;;;7.16;100.00
47366;BME280;33105;47.964;7.982;2023-12-22T15:02:11;96036.91;;;7.27;100.00
47366;BME280;33105;47.964;7.982;2023-12-22T15:05:13;96054.13;;;7.42;100.00
47366;BME280;33105;47.964;7.982;2023-12-22T15:08:14;96055.97;;;7.32;100.00
47366;BME280;33105;47.964;7.982;2023-12-22T15:11:15;96065.34;;;7.19;100.00
47366;BME280;33105;47.964;7.982;2023-12-22T15:14:17;96056.78;;;7.32;100.00
47366;BME280;33105;47.964;7.982;2023-12-22T15:17:18;96058.50;;;7.43;100.00
47366;BME280;33105;47.964;7.982;2023-12-22T15:20:20;96047.03;;;7.36;100.00
47366;BME280;33105;47.964;7.982;2023-12-22T15:23:21;96066.31;;;7.35;100.00
47366;BME280;33105;47.964;7.982;2023-12-22T15:26:24;96081.75;;;7.29;100.00
47366;BME280;33105;47.964;7.982;2023-12-22T15:29:26;96072.97;;;7.22;100.00
47366;BME280;33105;47.964;7.982;2023-12-22T15:32:28;96074.38;;;7.25;100.00
47366;BME280;33105;47.964;7.982;2023-12-22T15:35:31;96090.09;;;7.23;100.00
47366;BME280;33105;47.964;7.982;2023-12-22T15:38:33;96074.69;;;7.28;100.00
47366;BME280;33105;47.964;7.982;2023-12-22T15:41:34;96081.69;;;7.24;100.00
47366;BME280;33105;47.964;7.982;2023-12-22T15:44:40;96104.38;;;7.08;100.00
47366;BME280;33105;47.964;7.982;2023-12-22T15:47:41;96102.56;;;7.18;100.00
47366;BME280;33105;47.964;7.982;2023-12-22T15:50:43;96099.03;;;7.18;100.00
47366;BME280;33105;47.964;7.982;2023-12-22T15:53:45;96107.34;;;7.33;100.00
47366;BME280;33105;47.964;7.982;2023-12-22T15:56:47;96108.34;;;7.27;100.00
47366;BME280;33105;47.964;7.982;2023-12-22T15:59:48;96093.13;;;7.26;100.00
47366;BME280;33105;47.964;7.982;2023-12-22T16:02:49;96092.97;;;7.38;100.00
47366;BME280;33105;47.964;7.982;2023-12-22T16:05:50;96109.81;;;7.35;100.00
47366;BME280;33105;47.964;7.982;2023-12-22T16:08:52;96108.97;;;7.34;100.00
47366;BME280;33105;47.964;7.982;2023-12-22T16:11:53;96105.50;;;7.39;100.00
47366;BME280;33105;47.964;7.982;2023-12-22T16:14:54;96098.16;;;7.39;100.00
47366;BME280;33105;47.964;7.982;2023-12-22T16:17:56;96099.81;;;7.45;100.00
47366;BME280;33105;47.964;7.982;2023-12-22T16:20:57;96111.69;;;7.34;100.00
47366;BME280;33105;47.964;7.982;2023-12-22T16:23:58;96108.97;;;7.34;100.00
47366;BME280;33105;47.964;7.982;2023-12-22T16:26:59;96108.03;;;7.50;100.00
47366;BME280;33105;47.964;7.982;2023-12-22T16:30:00;96099.72;;;7.62;100.00
47366;BME280;33105;47.964;7.982;2023-12-22T16:33:02;96116.75;;;7.53;100.00
47366;BME280;33105;47.964;7.982;2023-12-22T16:36:10;96117.06;;;7.56;100.00
47366;BME280;33105;47.964;7.982;2023-12-22T16:39:12;96124.59;;;7.49;100.00
47366;BME280;33105;47.964;7.982;2023-12-22T16:42:13;96125.00;;;7.63;100.00
47366;BME280;33105;47.964;7.982;2023-12-22T16:45:16;96140.69;;;7.56;100.00
47366;BME280;33105;47.964;7.982;2023-12-22T16:48:17;96139.06;;;7.55;100.00
47366;BME280;33105;47.964;7.982;2023-12-22T16:51:19;96142.84;;;7.54;100.00
47366;BME280;33105;47.964;7.982;2023-12-22T16:54:21;96153.59;;;7.38;100.00
47366;BME280;33105;47.964;7.982;2023-12-22T16:57:22;96154.69;;;7.42;100.00
47366;BME280;33105;47.964;7.982;2023-12-22T17:00:23;96155.78;;;7.41;100.00
47366;BME280;33105;47.964;7.982;2023-12-22T17:03:26;96148.66;;;7.35;100.00
47366;BME280;33105;47.964;7.982;2023-12-22T17:06:27;96161.13;;;7.31;100.00
47366;BME280;33105;47.964;7.982;2023-12-22T17:09:28;96148.53;;;7.25;100.00
47366;BME280;33105;47.964;7.982;2023-12-22T17:12:29;96157.88;;;7.34;100.00
47366;BME280;33105;47.964;7.982;2023-12-22T17:15:30;96172.81;;;7.32;100.00
47366;BME280;33105;47.964;7.982;2023-12-22T17:18:32;96174.97;;;7.08;100.00
47366;BME280;33105;47.964;7.982;2023-12-22T17:21:33;96173.47;;;7.17;100.00
47366;BME280;33105;47.964;7.982;2023-12-22T17:24:35;96185.34;;;7.11;100.00
47366;BME280;33105;47.964;7.982;2023-12-22T17:27:37;96189.69;;;7.12;100.00
47366;BME280;33105;47.964;7.982;2023-12-22T17:30:38;96191.38;;;7.18;100.00
47366;BME280;33105;47.964;7.982;2023-12-22T17:33:39;96195.72;;;7.14;100.00
47366;BME280;33105;47.964;7.982;2023-12-22T17:36:40;96208.72;;;7.12;100.00
47366;BME280;33105;47.964;7.982;2023-12-22T17:39:41;96232.84;;;7.08;100.00
47366;BME280;33105;47.964;7.982;2023-12-22T17:42:43;96215.47;;;7.09;100.00
47366;BME280;33105;47.964;7.982;2023-12-22T17:45:44;96231.94;;;7.03;100.00
47366;BME280;33105;47.964;7.982;2023-12-22T17:48:45;96231.38;;;7.01;100.00
47366;BME280;33105;47.964;7.982;2023-12-22T17:51:46;96226.03;;;7.06;100.00
47366;BME280;33105;47.964;7.982;2023-12-22T17:54:48;96246.09;;;7.05;100.00
47366;BME280;33105;47.964;7.982;2023-12-22T17:57:49;96229.81;;;7.05;100.00
47366;BME280;33105;47.964;7.982;2023-12-22T18:00:51;96238.84;;;7.10;100.00
47366;BME280;33105;47.964;7.982;2023-12-22T18:03:52;96241.25;;;7.07;100.00
47366;BME280;33105;47.964;7.982;2023-12-22T18:06:56;96245.34;;;7.09;100.00
47366;BME280;33105;47.964;7.982;2023-12-22T18:09:57;96253.50;;;7.09;100.00
47366;BME280;33105;47.964;7.982;2023-12-22T18:12:59;96252.78;;;6.97;100.00
47366;BME280;33105;47.964;7.982;2023-12-22T18:16:00;96254.25;;;7.05;100.00
47366;BME280;33105;47.964;7.982;2023-12-22T18:19:02;96253.59;;;7.20;100.00
47366;BME280;33105;47.964;7.982;2023-12-22T18:22:03;96261.91;;;7.08;100.00
47366;BME280;33105;47.964;7.982;2023-12-22T18:25:04;96274.59;;;7.02;100.00
47366;BME280;33105;47.964;7.982;2023-12-22T18:28:07;96276.06;;;7.10;100.00
47366;BME280;33105;47.964;7.982;2023-12-22T18:31:08;96277.53;;;7.18;100.00
47366;BME280;33105;47.964;7.982;2023-12-22T18:34:09;96273.91;;;7.12;100.00
47366;BME280;33105;47.964;7.982;2023-12-22T18:37:10;96270.63;;;7.10;100.00
47366;BME280;33105;47.964;7.982;2023-12-22T18:40:13;96279.75;;;7.04;100.00
47366;BME280;33105;47.964;7.982;2023-12-22T18:43:15;96265.19;;;7.10;100.00
47366;BME280;33105;47.964;7.982;2023-12-22T18:46:16;96270.47;;;7.00;100.00
47366;BME280;33105;47.964;7.982;2023-12-22T18:49:18;96277.22;;;6.97;100.00
47366;BME280;33105;47.964;7.982;2023-12-22T18:52:21;96281.00;;;6.96;100.00
47366;BME280;33105;47.964;7.982;2023-12-22T18:55:22;96286.84;;;7.05;100.00
47366;BME280;33105;47.964;7.982;2023-12-22T18:58:24;96294.50;;;7.08;100.00
47366;BME280;33105;47.964;7.982;2023-12-22T19:01:27;96296.63;;;7.06;100.00
47366;BME280;33105;47.964;7.982;2023-12-22T19:04:28;96294.31;;;7.14;100.00
47366;BME280;33105;47.964;7.982;2023-12-22T19:07:30;96318.38;;;7.06;100.00
47366;BME280;33105;47.964;7.982;2023-12-22T19:10:31;96331.38;;;7.04;100.00
47366;BME280;33105;47.964;7.982;2023-12-22T19:13:32;96328.00;;;6.97;100.00
47366;BME280;33105;47.964;7.982;2023-12-22T19:16:33;96346.84;;;7.03;100.00
47366;BME280;33105;47.964;7.982;2023-12-22T19:19:35;96360.59;;;6.97;100.00
47366;BME280;33105;47.964;7.982;2023-12-22T19:22:36;96357.03;;;6.96;100.00
47366;BME280;33105;47.964;7.982;2023-12-22T19:25:37;96370.72;;;7.01;100.00
47366;BME280;33105;47.964;7.982;2023-12-22T19:28:38;96376.47;;;7.05;100.00
47366;BME280;33105;47.964;7.982;2023-12-22T19:31:40;96378.47;;;6.93;100.00
47366;BME280;33105;47.964;7.982;2023-12-22T19:34:42;96368.94;;;6.90;100.00
47366;BME280;33105;47.964;7.982;2023-12-22T19:37:43;96371.06;;;6.88;100.00
47366;BME280;33105;47.964;7.982;2023-12-22T19:40:45;96377.03;;;7.07;100.00
47366;BME280;33105;47.964;7.982;2023-12-22T19:43:46;96383.22;;;7.02;100.00
47366;BME280;33105;47.964;7.982;2023-12-22T19:46:47;96391.63;;;6.84;100.00
47366;BME280;33105;47.964;7.982;2023-12-22T19:49:49;96395.09;;;6.79;100.00
47366;BME280;33105;47.964;7.982;2023-12-22T19:52:50;96395.00;;;6.91;100.00
47366;BME280;33105;47.964;7.982;2023-12-22T19:55:52;96402.09;;;6.92;100.00
47366;BME280;33105;47.964;7.982;2023-12-22T19:58:57;96409.09;;;6.88;100.00
47366;BME280;33105;47.964;7.982;2023-12-22T20:02:11;96428.25;;;6.81;100.00
47366;BME280;33105;47.964;7.982;2023-12-22T20:05:12;96429.31;;;6.80;100.00
47366;BME280;33105;47.964;7.982;2023-12-22T20:08:15;96446.56;;;6.74;100.00
47366;BME280;33105;47.964;7.982;2023-12-22T20:11:21;96435.56;;;6.64;100.00
47366;BME280;33105;47.964;7.982;2023-12-22T20:14:27;96436.88;;;6.62;100.00
47366;BME280;33105;47.964;7.982;2023-12-22T20:17:28;96436.97;;;6.67;100.00
47366;BME280;33105;47.964;7.982;2023-12-22T20:20:30;96438.91;;;6.71;100.00
47366;BME280;33105;47.964;7.982;2023-12-22T20:23:31;96444.53;;;6.65;100.00
47366;BME280;33105;47.964;7.982;2023-12-22T20:26:33;96441.38;;;6.73;100.00
47366;BME280;33105;47.964;7.982;2023-12-22T20:29:35;96462.69;;;6.64;100.00
47366;BME280;33105;47.964;7.982;2023-12-22T20:32:36;96452.44;;;6.66;100.00
47366;BME280;33105;47.964;7.982;2023-12-22T20:36:02;96449.03;;;6.59;100.00